Time;durP1;ratioP1;P1;durP2;ratioP2;P2;SDS_P1;SDS_P2;PMS_P1;PMS_P2;Temp;Humidity;BMP_temperature;BMP_pressure;BME280_temperature;BME280_humidity;BME280_pressure;Samples;Min_cycle;Max_cycle;Signal;HPM_P1;HPM_P2
2022/08/04 00:01:44;;;;;;;0.00;0.00;;;20.90;99.90;;;;;;5051024;28;20404;-80
2022/08/04 00:04:31;;;;;;;0.20;0.15;;;20.80;99.90;;;;;;5087638;28;20048;-80
2022/08/04 00:07:01;;;;;;;0.10;0.10;;;20.80;99.90;;;;;;5086808;28;20489;-79
2022/08/04 00:09:37;;;;;;;0.00;0.00;;;20.80;99.90;;;;;;5087618;28;20083;-80
2022/08/04 00:12:06;;;;;;;0.00;0.00;;;20.70;99.90;;;;;;5087557;28;20049;-79
2022/08/04 00:14:40;;;;;;;0.00;0.00;;;20.70;99.90;;;;;;5037385;28;20065;-79
2022/08/04 00:17:07;;;;;;;;;;;20.60;99.90;;;;;;5070800;28;20079;-79
2022/08/04 00:19:40;;;;;;;0.00;0.00;;;20.60;99.90;;;;;;5070462;28;19935;-80
2022/08/04 00:22:09;;;;;;;0.00;0.00;;;20.60;99.90;;;;;;5070375;28;20485;-80
2022/08/04 00:24:36;;;;;;;0.10;0.03;;;20.50;99.90;;;;;;5070506;28;20069;-80
2022/08/04 00:27:02;;;;;;;0.00;0.00;;;20.50;99.90;;;;;;5070144;28;20065;-79
2022/08/04 00:29:28;;;;;;;0.00;0.00;;;20.50;99.90;;;;;;5070050;28;20049;-79
2022/08/04 00:31:55;;;;;;;0.00;0.00;;;20.40;99.90;;;;;;5087089;28;20119;-79
2022/08/04 00:34:24;;;;;;;0.03;0.00;;;20.40;99.90;;;;;;5086889;28;20049;-80
2022/08/04 00:36:52;;;;;;;0.00;0.00;;;20.40;99.90;;;;;;5086712;28;20047;-79
2022/08/04 00:39:18;;;;;;;0.20;0.00;;;20.40;99.90;;;;;;5070320;28;20057;-79
2022/08/04 00:41:49;;;;;;;0.00;0.00;;;20.30;99.90;;;;;;5087026;28;20045;-79
2022/08/04 00:44:57;;;;;;;0.00;0.00;;;20.30;99.90;;;;;;5086881;28;20380;-79
2022/08/04 00:47:48;;;;;;;0.00;0.00;;;20.30;99.90;;;;;;5036505;28;20519;-79
2022/08/04 00:50:45;;;;;;;0.05;0.05;;;20.30;99.90;;;;;;5053376;28;20052;-79
2022/08/04 00:53:29;;;;;;;0.00;0.00;;;20.30;99.90;;;;;;5051601;28;20053;-79
2022/08/04 00:56:10;;;;;;;1.77;0.65;;;20.20;99.90;;;;;;5035544;28;20098;-79
2022/08/04 00:59:08;;;;;;;1.17;0.30;;;20.20;99.90;;;;;;5019124;28;20057;-79
2022/08/04 01:02:00;;;;;;;0.00;0.00;;;20.20;99.90;;;;;;5035810;28;20053;-79
2022/08/04 01:04:57;;;;;;;0.10;0.10;;;20.10;99.90;;;;;;5035407;28;20094;-79
2022/08/04 01:07:40;;;;;;;0.65;0.05;;;20.20;99.90;;;;;;5034835;28;20156;-79
2022/08/04 01:10:36;;;;;;;0.00;0.00;;;20.20;99.90;;;;;;5035280;28;20478;-79
2022/08/04 01:13:29;;;;;;;0.00;0.00;;;20.20;99.90;;;;;;5035100;28;20044;-79
2022/08/04 01:16:06;;;;;;;0.20;0.20;;;20.20;99.90;;;;;;5035650;28;20500;-79
2022/08/04 01:18:48;;;;;;;0.00;0.00;;;20.20;99.90;;;;;;5035205;28;20531;-79
2022/08/04 01:21:28;;;;;;;0.00;0.00;;;20.10;99.90;;;;;;5019051;28;20044;-79
2022/08/04 01:24:36;;;;;;;0.20;0.20;;;20.20;99.90;;;;;;5035123;28;20500;-79
2022/08/04 01:27:31;;;;;;;0.00;0.00;;;20.20;99.90;;;;;;5035366;28;20107;-79
2022/08/04 01:29:58;;;;;;;0.10;0.10;;;20.20;99.90;;;;;;5025945;28;20060;-79
2022/08/04 01:32:31;;;;;;;0.00;0.00;;;20.20;99.90;;;;;;5069586;28;20056;-79
2022/08/04 01:35:12;;;;;;;0.00;0.00;;;20.10;99.90;;;;;;5086962;28;20049;-79
2022/08/04 01:37:40;;;;;;;0.00;0.00;;;20.20;99.90;;;;;;5069475;28;20549;-79
2022/08/04 01:40:07;;;;;;;0.00;0.00;;;20.10;99.90;;;;;;5086415;28;20049;-79
2022/08/04 01:42:35;;;;;;;0.10;0.00;;;20.10;99.90;;;;;;5089994;28;20047;-79
2022/08/04 01:45:09;;;;;;;0.00;0.00;;;20.20;99.90;;;;;;5073580;28;20063;-79
2022/08/04 01:47:37;;;;;;;0.00;0.00;;;20.20;99.90;;;;;;5089675;28;20076;-79
2022/08/04 01:50:12;;;;;;;0.00;0.00;;;20.20;99.90;;;;;;5073244;28;20071;-79
2022/08/04 01:52:40;;;;;;;0.00;0.00;;;20.10;99.90;;;;;;5090134;28;20132;-79
2022/08/04 01:55:09;;;;;;;0.22;0.10;;;20.10;99.90;;;;;;5073359;28;20056;-79
2022/08/04 01:57:45;;;;;;;0.00;0.00;;;20.20;99.90;;;;;;5090295;28;20132;-79
2022/08/04 02:00:17;;;;;;;0.40;0.10;;;20.20;99.90;;;;;;5056513;28;20099;-79
2022/08/04 02:02:44;;;;;;;0.00;0.00;;;20.20;99.90;;;;;;5089770;28;20053;-79
2022/08/04 02:05:14;;;;;;;0.00;0.00;;;20.20;99.90;;;;;;5089625;28;20049;-79
2022/08/04 02:07:40;;;;;;;0.00;0.00;;;20.20;99.90;;;;;;5073035;28;20140;-79
2022/08/04 02:10:07;;;;;;;0.90;0.25;;;20.20;99.90;;;;;;5073381;28;20139;-79
2022/08/04 02:12:41;;;;;;;0.10;0.00;;;20.20;99.90;;;;;;5072757;28;20103;-79
2022/08/04 02:15:20;;;;;;;0.15;0.10;;;20.10;99.90;;;;;;5073303;28;20053;-79
2022/08/04 02:18:07;;;;;;;0.13;0.13;;;20.10;99.90;;;;;;5089785;28;20045;-79
2022/08/04 02:20:37;;;;;;;0.00;0.00;;;20.10;99.90;;;;;;5089648;28;20508;-79
2022/08/04 02:23:06;;;;;;;0.00;0.00;;;20.10;99.90;;;;;;5072740;28;20092;-79
2022/08/04 02:25:47;;;;;;;0.15;0.15;;;20.00;99.90;;;;;;5072725;28;20056;-79
2022/08/04 02:28:25;;;;;;;0.00;0.00;;;20.00;99.90;;;;;;5072510;28;20136;-79
2022/08/04 02:30:54;;;;;;;0.10;0.08;;;20.00;99.90;;;;;;5072638;28;20461;-79
2022/08/04 02:33:30;;;;;;;0.00;0.00;;;20.00;99.90;;;;;;5089193;28;20048;-79
2022/08/04 02:35:59;;;;;;;0.00;0.00;;;19.90;99.90;;;;;;5055930;28;20045;-79
2022/08/04 02:38:43;;;;;;;0.00;0.00;;;19.90;99.90;;;;;;5072505;28;20065;-79
2022/08/04 02:41:10;;;;;;;0.15;0.05;;;19.90;99.90;;;;;;5072166;28;20103;-79
2022/08/04 02:43:37;;;;;;;0.00;0.00;;;19.80;99.90;;;;;;5072597;28;20053;-79
2022/08/04 02:46:04;;;;;;;0.00;0.00;;;19.80;99.90;;;;;;5088864;28;20059;-79
2022/08/04 02:48:33;;;;;;;0.00;0.00;;;19.80;99.90;;;;;;5088803;28;20516;-79
2022/08/04 02:51:01;;;;;;;0.10;0.10;;;19.80;99.90;;;;;;5088956;28;20135;-79
2022/08/04 02:53:29;;;;;;;0.10;0.10;;;19.80;99.90;;;;;;5087567;28;20135;-79
2022/08/04 02:55:57;;;;;;;0.00;0.00;;;19.80;99.90;;;;;;5088799;28;20052;-79
2022/08/04 02:58:24;;;;;;;0.00;0.00;;;19.70;99.90;;;;;;5072516;28;20566;-78
2022/08/04 03:00:51;;;;;;;0.05;0.00;;;19.70;99.90;;;;;;5089070;28;20424;-79
2022/08/04 03:03:25;;;;;;;0.00;0.00;;;19.70;99.90;;;;;;5071713;28;20572;-79
2022/08/04 03:06:10;;;;;;;0.00;0.00;;;19.70;99.90;;;;;;5088220;28;20065;-79
2022/08/04 03:08:38;;;;;;;0.10;0.05;;;19.70;99.90;;;;;;5088844;28;20051;-79
2022/08/04 03:11:38;;;;;;;0.00;0.00;;;19.70;99.90;;;;;;5088313;28;20052;-79
2022/08/04 03:14:04;;;;;;;0.00;0.00;;;19.70;99.90;;;;;;5088640;28;20049;-79
2022/08/04 03:16:46;;;;;;;0.63;0.00;;;19.70;99.90;;;;;;5071705;28;20526;-79
2022/08/04 03:19:20;;;;;;;0.00;0.00;;;19.60;99.90;;;;;;5089033;28;20150;-79
2022/08/04 03:22:04;;;;;;;;;;;19.60;99.90;;;;;;5089041;28;20045;-79
2022/08/04 03:25:04;;;;;;;0.15;0.00;;;19.60;99.90;;;;;;5088178;28;19959;-79
2022/08/04 03:27:48;;;;;;;0.90;0.08;;;19.60;99.90;;;;;;5088307;28;20041;-79
2022/08/04 03:30:39;;;;;;;0.00;0.00;;;19.60;99.90;;;;;;5088083;28;20378;-79
2022/08/04 03:33:25;;;;;;;0.00;0.00;;;19.60;99.90;;;;;;5071238;28;20490;-79
2022/08/04 03:36:35;;;;;;;0.93;0.40;;;19.60;99.90;;;;;;5071437;28;20049;-79
2022/08/04 03:39:19;;;;;;;0.00;0.00;;;19.50;99.90;;;;;;5071557;28;20060;-79
2022/08/04 03:42:07;;;;;;;0.00;0.00;;;19.50;99.90;;;;;;5088905;28;20045;-79
2022/08/04 03:44:54;;;;;;;0.00;0.00;;;19.50;99.90;;;;;;5071137;28;20056;-79
2022/08/04 03:47:54;;;;;;;0.10;0.00;;;19.40;99.90;;;;;;5087785;28;20059;-79
2022/08/04 03:50:40;;;;;;;0.00;0.00;;;19.40;99.90;;;;;;5071263;28;20049;-79
2022/08/04 03:53:28;;;;;;;0.00;0.00;;;19.30;99.90;;;;;;5087630;28;20049;-79
2022/08/04 03:55:56;;;;;;;0.10;0.00;;;19.30;99.90;;;;;;5087707;28;20048;-79
2022/08/04 03:59:00;;;;;;;0.00;0.00;;;19.30;99.90;;;;;;5070890;28;20081;-79
2022/08/04 04:01:40;;;;;;;0.10;0.10;;;19.30;99.90;;;;;;5087969;28;20449;-79
2022/08/04 04:04:18;;;;;;;0.00;0.00;;;19.30;99.90;;;;;;5087858;28;20416;-79
2022/08/04 04:07:20;;;;;;;0.00;0.00;;;19.30;99.90;;;;;;5087227;28;20063;-79
2022/08/04 04:10:11;;;;;;;0.10;0.10;;;19.30;99.90;;;;;;5071296;28;20501;-79
2022/08/04 04:12:59;;;;;;;0.00;0.00;;;19.20;99.90;;;;;;5087521;28;20048;-79
2022/08/04 04:15:46;;;;;;;0.00;0.00;;;19.20;99.90;;;;;;5087761;28;20051;-79
2022/08/04 04:18:23;;;;;;;0.00;0.00;;;19.20;99.90;;;;;;5070970;28;20045;-79
2022/08/04 04:21:17;;;;;;;0.00;0.00;;;19.20;99.90;;;;;;5087469;28;20048;-78
2022/08/04 04:23:59;;;;;;;0.00;0.00;;;19.30;99.90;;;;;;5087621;28;20040;-78
2022/08/04 04:26:25;;;;;;;0.00;0.00;;;19.20;99.90;;;;;;5087416;28;20553;-78
2022/08/04 04:28:57;;;;;;;0.00;0.00;;;19.20;99.90;;;;;;5070636;28;20143;-78
2022/08/04 04:31:53;;;;;;;0.00;0.00;;;19.30;99.90;;;;;;5070254;28;20499;-78
2022/08/04 04:34:39;;;;;;;0.00;0.00;;;19.30;99.90;;;;;;5070729;28;20049;-78
2022/08/04 04:37:43;;;;;;;0.17;0.17;;;19.30;99.90;;;;;;5087337;28;20041;-78
2022/08/04 04:40:32;;;;;;;0.00;0.00;;;19.30;99.90;;;;;;5070592;28;20064;-78
2022/08/04 04:43:00;;;;;;;0.00;0.00;;;19.30;99.90;;;;;;5087305;28;20063;-78
2022/08/04 04:45:40;;;;;;;0.40;0.10;;;19.30;99.90;;;;;;5086459;28;20507;-78
2022/08/04 04:48:16;;;;;;;0.00;0.00;;;19.40;99.90;;;;;;5086878;28;20048;-78
2022/08/04 04:50:57;;;;;;;0.00;0.00;;;19.40;99.90;;;;;;5053282;28;20041;-78
2022/08/04 04:53:28;;;;;;;0.03;0.03;;;19.40;99.90;;;;;;5086948;28;20515;-79
2022/08/04 04:56:13;;;;;;;0.00;0.00;;;19.50;99.90;;;;;;5087036;28;20095;-78
2022/08/04 04:58:40;;;;;;;0.00;0.00;;;19.60;99.90;;;;;;5087155;28;20045;-79
2022/08/04 05:01:35;;;;;;;0.10;0.08;;;19.60;99.90;;;;;;5086804;28;20388;-78
2022/08/04 05:04:23;;;;;;;0.00;0.00;;;19.60;99.90;;;;;;5035651;28;20120;-78
2022/08/04 05:07:09;;;;;;;0.00;0.00;;;19.70;99.90;;;;;;5034930;28;20059;-78
2022/08/04 05:09:49;;;;;;;0.00;0.00;;;19.80;99.90;;;;;;5035656;28;20049;-78
2022/08/04 05:12:34;;;;;;;0.00;0.00;;;19.80;99.90;;;;;;5035398;28;20068;-78
2022/08/04 05:15:03;;;;;;;0.10;0.00;;;19.90;99.90;;;;;;5034555;28;20045;-78
2022/08/04 05:17:44;;;;;;;0.00;0.00;;;20.00;99.90;;;;;;5035287;28;20040;-78
2022/08/04 05:20:21;;;;;;;0.28;0.25;;;20.00;99.90;;;;;;5035458;28;20084;-79
2022/08/04 05:22:55;;;;;;;0.00;0.00;;;20.10;99.90;;;;;;5018313;28;20053;-79
2022/08/04 05:25:35;;;;;;;0.00;0.00;;;20.10;99.90;;;;;;5018400;28;20115;-79
2022/08/04 05:28:24;;;;;;;0.35;0.05;;;20.20;99.90;;;;;;5035664;28;20053;-79
2022/08/04 05:30:56;;;;;;;0.00;0.00;;;20.30;99.90;;;;;;5035104;28;20555;-78
2022/08/04 05:33:26;;;;;;;0.00;0.00;;;20.30;99.90;;;;;;5034824;28;20053;-79
2022/08/04 05:35:57;;;;;;;0.00;0.00;;;20.40;99.90;;;;;;5035016;28;20053;-79
2022/08/04 05:38:27;;;;;;;0.00;0.00;;;20.40;99.90;;;;;;5035214;28;20107;-79
2022/08/04 05:40:53;;;;;;;0.00;0.00;;;20.50;99.90;;;;;;5046792;28;20134;-79
2022/08/04 05:43:22;;;;;;;0.00;0.00;;;20.50;99.90;;;;;;5086212;28;20088;-79
2022/08/04 05:45:49;;;;;;;0.00;0.00;;;20.50;99.90;;;;;;5069227;28;20060;-78
2022/08/04 05:48:16;;;;;;;1.27;0.40;;;20.50;99.90;;;;;;5086257;28;20052;-78
2022/08/04 05:50:43;;;;;;;0.10;0.03;;;20.60;99.90;;;;;;5069195;28;20096;-79
2022/08/04 05:53:10;;;;;;;0.35;0.10;;;20.70;99.90;;;;;;5085710;28;20045;-79
2022/08/04 05:55:36;;;;;;;0.00;0.00;;;20.80;99.90;;;;;;5069463;28;20060;-79
2022/08/04 05:58:02;;;;;;;0.00;0.00;;;20.80;99.90;;;;;;5069411;28;20049;-79
2022/08/04 06:00:28;;;;;;;0.00;0.00;;;20.80;99.90;;;;;;5069865;28;20118;-79
2022/08/04 06:02:56;;;;;;;0.00;0.00;;;20.80;99.90;;;;;;5069359;28;20092;-79
2022/08/04 06:05:23;;;;;;;0.00;0.00;;;20.80;99.90;;;;;;5052180;28;20102;-78
2022/08/04 06:07:49;;;;;;;0.00;0.00;;;20.80;99.90;;;;;;5086707;28;20049;-79
2022/08/04 06:10:18;;;;;;;0.13;0.13;;;20.80;99.90;;;;;;5086040;28;20066;-79
2022/08/04 06:12:52;;;;;;;0.00;0.00;;;20.80;99.90;;;;;;5069196;28;20484;-79
2022/08/04 06:15:20;;;;;;;0.20;0.20;;;20.80;99.90;;;;;;5086158;28;20056;-78
2022/08/04 06:17:50;;;;;;;0.00;0.00;;;20.80;99.90;;;;;;5085968;28;20429;-78
2022/08/04 06:20:18;;;;;;;0.10;0.08;;;20.80;99.90;;;;;;5086252;28;20055;-78
2022/08/04 06:22:46;;;;;;;0.00;0.00;;;20.80;99.90;;;;;;5069062;28;20088;-78
2022/08/04 06:25:19;;;;;;;0.30;0.30;;;20.80;99.90;;;;;;5068970;28;20091;-78
2022/08/04 06:27:47;;;;;;;0.10;0.10;;;20.80;99.90;;;;;;5055205;28;20048;-78
2022/08/04 06:30:15;;;;;;;0.10;0.10;;;20.90;99.90;;;;;;5089455;28;20045;-78
2022/08/04 06:32:48;;;;;;;0.00;0.00;;;20.90;99.90;;;;;;5089280;28;20493;-78
2022/08/04 06:35:17;;;;;;;1.27;0.40;;;21.00;99.90;;;;;;5072925;28;20048;-78
2022/08/04 06:37:45;;;;;;;6.32;0.32;;;21.10;99.90;;;;;;5089379;28;20049;-78
2022/08/04 06:40:16;;;;;;;0.40;0.20;;;21.10;99.90;;;;;;5089599;28;20045;-78
2022/08/04 06:42:43;;;;;;;0.00;0.00;;;21.20;99.90;;;;;;5072429;28;20060;-78
2022/08/04 06:45:11;;;;;;;0.10;0.10;;;21.30;99.90;;;;;;5089410;28;20048;-78
2022/08/04 06:47:38;;;;;;;0.00;0.00;;;21.40;99.90;;;;;;5072404;28;20096;-78
2022/08/04 06:50:05;;;;;;;0.00;0.00;;;21.40;99.90;;;;;;5089264;28;20037;-78
2022/08/04 06:52:31;;;;;;;0.00;0.00;;;21.60;99.90;;;;;;5072037;28;20041;-78
2022/08/04 06:54:57;;;;;;;0.77;0.30;;;21.70;99.90;;;;;;5088962;28;20439;-78
2022/08/04 06:57:26;;;;;;;1.02;0.32;;;21.80;99.90;;;;;;5089551;28;20048;-78
2022/08/04 07:00:13;;;;;;;0.00;0.00;;;21.90;99.90;;;;;;5072024;28;20041;-79
2022/08/04 07:02:45;;;;;;;0.00;0.00;;;22.00;99.90;;;;;;5055646;28;20056;-78
2022/08/04 07:05:11;;;;;;;0.10;0.10;;;22.20;99.90;;;;;;5071866;28;20399;-78
2022/08/04 07:07:39;;;;;;;0.00;0.00;;;22.30;99.90;;;;;;5088836;28;20186;-78
2022/08/04 07:10:06;;;;;;;0.00;0.00;;;22.40;99.90;;;;;;5089745;28;20076;-78
2022/08/04 07:12:33;;;;;;;0.00;0.00;;;22.50;99.90;;;;;;5071577;28;20057;-79
2022/08/04 07:14:59;;;;;;;1.85;0.60;;;22.50;99.90;;;;;;5071890;28;20044;-78
2022/08/04 07:17:27;;;;;;;0.00;0.00;;;22.50;99.90;;;;;;5072104;28;20059;-78
2022/08/04 07:19:52;;;;;;;0.00;0.00;;;22.50;99.90;;;;;;5038765;28;20057;-78
2022/08/04 07:22:18;;;;;;;0.00;0.00;;;22.50;99.90;;;;;;5089262;28;20045;-78
2022/08/04 07:24:44;;;;;;;0.20;0.20;;;22.70;99.90;;;;;;5088580;28;20432;-78
2022/08/04 07:27:10;;;;;;;0.00;0.00;;;22.80;99.90;;;;;;5088794;28;20045;-78
2022/08/04 07:29:37;;;;;;;0.52;0.30;;;22.90;99.90;;;;;;5088436;28;20044;-78
2022/08/04 07:32:05;;;;;;;19.58;0.50;;;23.00;99.90;;;;;;5071418;28;20137;-78
2022/08/04 07:34:32;;;;;;;0.00;0.00;;;23.20;99.90;;;;;;5088375;28;20464;-78
2022/08/04 07:36:59;;;;;;;0.00;0.00;;;23.40;99.90;;;;;;5088091;28;20040;-78
2022/08/04 07:39:27;;;;;;;0.08;0.00;;;23.50;99.90;;;;;;5087203;28;20453;-78
2022/08/04 07:41:54;;;;;;;0.00;0.00;;;23.50;99.90;;;;;;5088212;28;20049;-78
2022/08/04 07:44:20;;;;;;;0.00;0.00;;;23.60;99.90;;;;;;5088169;28;20049;-78
2022/08/04 07:46:46;;;;;;;0.00;0.00;;;23.70;99.90;;;;;;5088227;28;20546;-78
2022/08/04 07:49:13;;;;;;;0.08;0.08;;;23.70;99.90;;;;;;5087798;28;20084;-79
2022/08/04 07:51:39;;;;;;;0.00;0.00;;;23.70;99.90;;;;;;5070863;28;20477;-79
2022/08/04 07:54:08;;;;;;;0.00;0.00;;;23.70;99.90;;;;;;5087982;28;20056;-79
2022/08/04 07:56:39;;;;;;;0.00;0.00;;;23.80;99.90;;;;;;5088006;28;20057;-79
2022/08/04 07:59:05;;;;;;;0.00;0.00;;;23.80;99.90;;;;;;5071344;28;20060;-79
2022/08/04 08:01:33;;;;;;;0.00;0.00;;;24.00;99.90;;;;;;5088175;28;20041;-79
2022/08/04 08:04:00;;;;;;;0.00;0.00;;;24.00;99.90;;;;;;5087517;28;20374;-79
2022/08/04 08:06:28;;;;;;;0.17;0.00;;;24.10;99.90;;;;;;5070863;28;20198;-78
2022/08/04 08:08:54;;;;;;;0.00;0.00;;;24.10;99.90;;;;;;5071030;28;20049;-79
2022/08/04 08:11:21;;;;;;;1.15;0.03;;;24.20;99.90;;;;;;5071269;28;20053;-79
2022/08/04 08:13:47;;;;;;;0.00;0.00;;;24.30;99.90;;;;;;5087699;28;20052;-79
2022/08/04 08:16:13;;;;;;;0.00;0.00;;;24.30;99.90;;;;;;5070540;28;20107;-79
2022/08/04 08:18:39;;;;;;;0.00;0.00;;;24.40;99.90;;;;;;5087552;28;20092;-79
2022/08/04 08:21:06;;;;;;;0.00;0.00;;;24.40;99.90;;;;;;5087671;28;20033;-79
2022/08/04 08:23:34;;;;;;;0.00;0.00;;;24.50;99.90;;;;;;5071172;28;20053;-78
2022/08/04 08:26:00;;;;;;;0.00;0.00;;;24.50;99.90;;;;;;5070539;28;20500;-79
2022/08/04 08:28:26;;;;;;;0.00;0.00;;;24.50;99.90;;;;;;5088329;28;20411;-79
2022/08/04 08:30:52;;;;;;;0.00;0.00;;;24.50;99.90;;;;;;5087462;28;20045;-79
2022/08/04 08:33:19;;;;;;;0.60;0.10;;;24.70;99.90;;;;;;5087095;28;20132;-79
2022/08/04 08:35:51;;;;;;;0.10;0.10;;;24.80;99.90;;;;;;5070600;28;20057;-79
2022/08/04 08:38:25;;;;;;;0.00;0.00;;;24.80;99.90;;;;;;5087517;28;20396;-79
2022/08/04 08:41:08;;;;;;;0.32;0.32;;;25.00;99.90;;;;;;5070378;28;20053;-78
2022/08/04 08:44:01;;;;;;;0.15;0.15;;;25.20;99.90;;;;;;5071519;28;20052;-79
2022/08/04 08:46:50;;;;;;;0.32;0.00;;;25.50;99.90;;;;;;5070281;28;20401;-79
2022/08/04 08:49:45;;;;;;;0.00;0.00;;;25.70;99.90;;;;;;5087412;28;20049;-79
2022/08/04 08:52:43;;;;;;;0.15;0.15;;;25.80;99.90;;;;;;5087297;28;20405;-79
2022/08/04 08:55:30;;;;;;;0.00;0.00;;;26.00;99.90;;;;;;5070284;28;20045;-79
2022/08/04 08:58:18;;;;;;;0.00;0.00;;;26.10;99.90;;;;;;5087353;28;20053;-79
2022/08/04 09:01:20;;;;;;;0.00;0.00;;;26.20;99.90;;;;;;5088135;28;20128;-79
2022/08/04 09:03:45;;;;;;;0.05;0.00;;;26.30;99.90;;;;;;5035787;28;20052;-79
2022/08/04 09:06:30;;;;;;;0.00;0.00;;;26.40;99.90;;;;;;5018979;28;20041;-79
2022/08/04 09:09:14;;;;;;;0.00;0.00;;;26.50;99.90;;;;;;5036537;28;20381;-80
2022/08/04 09:11:53;;;;;;;0.10;0.00;;;26.70;99.90;;;;;;5019230;28;20056;-80
2022/08/04 09:14:27;;;;;;;0.03;0.03;;;26.90;99.90;;;;;;5036123;28;20069;-80
2022/08/04 09:17:02;;;;;;;1.67;0.17;;;26.90;99.90;;;;;;5018942;28;20053;-79
2022/08/04 09:19:54;;;;;;;0.10;0.10;;;27.00;99.90;;;;;;5036452;28;20471;-79
2022/08/04 09:22:48;;;;;;;0.00;0.00;;;27.00;99.90;;;;;;5019333;28;20520;-79
2022/08/04 09:25:27;;;;;;;0.00;0.00;;;27.00;99.90;;;;;;5036430;28;20037;-80
2022/08/04 09:27:55;;;;;;;0.00;0.00;;;27.00;99.90;;;;;;5019455;28;20195;-80
2022/08/04 09:30:39;;;;;;;0.03;0.00;;;27.20;99.90;;;;;;5019126;28;20056;-80
2022/08/04 09:33:35;;;;;;;0.73;0.17;;;27.30;99.90;;;;;;5035564;28;20127;-80
2022/08/04 09:36:14;;;;;;;0.00;0.00;;;27.40;99.90;;;;;;5036132;28;20288;-80
2022/08/04 09:39:05;;;;;;;0.00;0.00;;;27.40;99.90;;;;;;5019845;28;20051;-80
2022/08/04 09:41:43;;;;;;;0.88;0.32;;;27.40;99.90;;;;;;5049493;28;20064;-80
2022/08/04 09:44:54;;;;;;;0.90;0.28;;;27.30;99.90;;;;;;5069812;28;20049;-80
2022/08/04 09:47:38;;;;;;;0.10;0.10;;;27.40;99.90;;;;;;5035644;28;20451;-80
2022/08/04 09:50:23;;;;;;;;;;;27.60;99.90;;;;;;5036053;28;20544;-80
2022/08/04 09:53:12;;;;;;;0.00;0.00;;;27.70;99.90;;;;;;5019161;28;20050;-80
2022/08/04 09:56:17;;;;;;;0.52;0.30;;;27.80;99.90;;;;;;5019291;28;20147;-80
2022/08/04 09:58:52;;;;;;;0.00;0.00;;;27.90;99.90;;;;;;5019247;28;20063;-80
2022/08/04 10:01:22;;;;;;;0.03;0.03;;;28.10;99.90;;;;;;5035950;28;20049;-80
2022/08/04 10:03:55;;;;;;;0.00;0.00;;;28.20;99.90;;;;;;5022878;28;20053;-80
2022/08/04 10:06:45;;;;;;;0.00;0.00;;;28.10;99.90;;;;;;5038597;28;20537;-80
2022/08/04 10:09:27;;;;;;;0.00;0.00;;;28.10;99.90;;;;;;5022561;28;20060;-80
2022/08/04 10:12:10;;;;;;;0.00;0.00;;;28.00;99.90;;;;;;5022593;28;20053;-80
2022/08/04 10:14:52;;;;;;;0.00;0.00;;;28.00;99.90;;;;;;5039183;28;20044;-79
2022/08/04 10:17:53;;;;;;;0.00;0.00;;;28.10;99.90;;;;;;5038958;28;20405;-80
2022/08/04 10:20:42;;;;;;;0.00;0.00;;;28.30;99.90;;;;;;4960670;28;20066;-80
2022/08/04 10:23:32;;;;;;;0.10;0.10;;;28.60;99.90;;;;;;4962359;28;20118;-80
2022/08/04 10:26:18;;;;;;;0.10;0.00;;;28.80;99.90;;;;;;4963680;28;20504;-80
2022/08/04 10:28:52;;;;;;;0.00;0.00;;;28.80;99.90;;;;;;5012673;28;20054;-80
2022/08/04 10:31:29;;;;;;;0.57;0.17;;;28.70;99.90;;;;;;4979964;28;20058;-79
2022/08/04 10:34:19;;;;;;;0.45;0.13;;;28.60;99.90;;;;;;4963617;28;20070;-80
2022/08/04 10:36:57;;;;;;;0.00;0.00;;;28.40;99.90;;;;;;4979219;28;20133;-80
2022/08/04 10:40:35;;;;;;;0.00;0.00;;;28.40;99.90;;;;;;4963092;28;20446;-81
2022/08/04 10:42:36;;;;;;;0.10;0.10;;;28.50;99.90;;;;;;4979495;28;20057;-80
2022/08/04 10:45:18;;;;;;;0.40;0.10;;;28.70;99.90;;;;;;4963022;28;20066;-80
2022/08/04 10:47:53;;;;;;;0.00;0.00;;;28.80;99.90;;;;;;4963221;28;20065;-80
2022/08/04 10:50:22;;;;;;;0.20;0.20;;;29.00;99.90;;;;;;4979327;28;20478;-80
2022/08/04 10:53:01;;;;;;;0.00;0.00;;;29.10;99.90;;;;;;4995172;28;20054;-80
2022/08/04 10:55:41;;;;;;;0.40;0.10;;;29.10;99.90;;;;;;4963255;28;20132;-81
2022/08/04 10:58:15;;;;;;;0.10;0.10;;;29.10;99.90;;;;;;5026519;28;20060;-81
2022/08/04 11:00:44;;;;;;;0.50;0.10;;;29.00;99.90;;;;;;5089561;28;20056;-80
2022/08/04 11:03:20;;;;;;;0.90;0.20;;;29.10;99.90;;;;;;5072171;28;20053;-81
2022/08/04 11:05:53;;;;;;;0.22;0.20;;;29.20;99.90;;;;;;5055548;28;20053;-80
2022/08/04 11:08:44;;;;;;;0.00;0.00;;;29.40;99.90;;;;;;5090059;28;20056;-80
2022/08/04 11:11:39;;;;;;;0.00;0.00;;;29.40;99.90;;;;;;5072989;28;20469;-81
2022/08/04 11:14:11;;;;;;;1.08;0.43;;;29.30;99.00;;;;;;5054882;28;20041;-81
2022/08/04 11:16:52;;;;;;;0.10;0.00;;;29.10;99.30;;;;;;5071960;28;20049;-81
2022/08/04 11:19:30;;;;;;;0.08;0.03;;;29.00;99.90;;;;;;5089259;28;20373;-81
2022/08/04 11:22:23;;;;;;;0.00;0.00;;;28.70;99.50;;;;;;5088768;28;20504;-81
2022/08/04 11:25:04;;;;;;;0.10;0.10;;;28.50;99.50;;;;;;5037706;28;20080;-81
2022/08/04 11:27:49;;;;;;;0.00;0.00;;;28.40;99.00;;;;;;5072603;28;20053;-80
2022/08/04 11:30:16;;;;;;;0.00;0.00;;;28.40;99.70;;;;;;5089491;28;20091;-80
2022/08/04 11:33:04;;;;;;;0.05;0.05;;;28.40;99.90;;;;;;5088426;28;20048;-80
2022/08/04 11:35:46;;;;;;;0.00;0.00;;;28.30;99.60;;;;;;5089105;28;20049;-80
2022/08/04 11:38:23;;;;;;;1.95;0.25;;;28.30;99.90;;;;;;5089226;28;20114;-80
2022/08/04 11:40:56;;;;;;;0.00;0.00;;;28.20;99.60;;;;;;5089035;28;20044;-80
2022/08/04 11:43:36;;;;;;;0.00;0.00;;;28.10;99.90;;;;;;5088352;28;20057;-80
2022/08/04 11:46:08;;;;;;;0.00;0.00;;;27.90;99.90;;;;;;5088369;28;20049;-80
2022/08/04 11:48:44;;;;;;;0.00;0.00;;;27.70;99.90;;;;;;5088293;28;20055;-80
2022/08/04 11:51:10;;;;;;;0.20;0.20;;;27.50;99.90;;;;;;5088372;28;20045;-80
2022/08/04 11:53:37;;;;;;;0.00;0.00;;;27.40;99.90;;;;;;5071976;28;20041;-80
2022/08/04 11:56:07;;;;;;;0.38;0.10;;;27.20;99.90;;;;;;5072343;28;20057;-80
2022/08/04 11:58:32;;;;;;;0.03;0.00;;;27.10;99.90;;;;;;5088556;28;20143;-80
2022/08/04 12:01:10;;;;;;;0.00;0.00;;;27.10;99.90;;;;;;5088348;28;20080;-80
2022/08/04 12:04:12;;;;;;;0.15;0.15;;;27.00;99.90;;;;;;5088529;28;20057;-81
2022/08/04 12:06:53;;;;;;;0.00;0.00;;;26.90;99.90;;;;;;5070610;28;20052;-80
2022/08/04 12:09:45;;;;;;;4.68;1.10;;;26.80;99.90;;;;;;5071071;28;20045;-80
2022/08/04 12:12:42;;;;;;;0.15;0.13;;;26.70;99.90;;;;;;5087975;28;20505;-80
2022/08/04 12:15:31;;;;;;;0.00;0.00;;;26.60;99.90;;;;;;5071161;28;20095;-81
2022/08/04 12:18:03;;;;;;;3.00;0.40;;;26.40;99.90;;;;;;5087874;28;20048;-81
2022/08/04 12:20:33;;;;;;;0.00;0.00;;;26.30;99.90;;;;;;5071760;28;20057;-81
2022/08/04 12:23:02;;;;;;;0.00;0.00;;;26.20;99.90;;;;;;5087755;28;20107;-81
2022/08/04 12:25:35;;;;;;;0.00;0.00;;;26.10;99.90;;;;;;5087721;28;20144;-81
2022/08/04 12:28:14;;;;;;;0.00;0.00;;;26.00;99.90;;;;;;5070811;28;20103;-81
2022/08/04 12:30:45;;;;;;;2.38;0.10;;;25.90;99.90;;;;;;5087244;28;20056;-81
2022/08/04 12:33:19;;;;;;;0.00;0.00;;;25.70;99.90;;;;;;5087754;28;20497;-81
2022/08/04 12:35:55;;;;;;;0.00;0.00;;;25.70;99.90;;;;;;5071771;28;20057;-81
2022/08/04 12:38:24;;;;;;;0.00;0.00;;;25.50;99.90;;;;;;5087807;28;20059;-81
2022/08/04 12:40:52;;;;;;;0.00;0.00;;;25.50;99.90;;;;;;5087518;28;20051;-81
2022/08/04 12:43:37;;;;;;;0.30;0.10;;;25.30;99.90;;;;;;5070398;28;20057;-81
2022/08/04 12:46:22;;;;;;;0.00;0.00;;;25.20;99.90;;;;;;5087121;28;20053;-81
2022/08/04 12:48:49;;;;;;;0.00;0.00;;;25.00;99.90;;;;;;5070950;28;20063;-81
2022/08/04 12:51:16;;;;;;;0.20;0.10;;;24.90;99.90;;;;;;5087453;28;20080;-81
2022/08/04 12:53:43;;;;;;;0.00;0.00;;;24.70;99.90;;;;;;5070332;28;20045;-81
2022/08/04 12:56:11;;;;;;;0.00;0.00;;;24.50;99.90;;;;;;5087529;28;20049;-81
2022/08/04 12:58:45;;;;;;;0.00;0.00;;;24.40;99.90;;;;;;5087221;28;20488;-81
2022/08/04 13:01:15;;;;;;;0.00;0.00;;;24.20;99.90;;;;;;5070723;28;20041;-82
2022/08/04 13:03:54;;;;;;;0.00;0.00;;;24.20;99.90;;;;;;5070392;28;20056;-81
2022/08/04 13:06:29;;;;;;;0.00;0.00;;;24.10;99.90;;;;;;5087517;28;20536;-81
2022/08/04 13:09:08;;;;;;;0.00;0.00;;;24.20;99.90;;;;;;5087703;28;20114;-82
2022/08/04 13:11:40;;;;;;;0.00;0.00;;;24.20;99.90;;;;;;5070366;28;20396;-81
2022/08/04 13:14:08;;;;;;;0.00;0.00;;;24.20;99.90;;;;;;5086868;28;20084;-81
2022/08/04 13:16:34;;;;;;;0.00;0.00;;;24.20;99.90;;;;;;5086972;28;20366;-81
2022/08/04 13:19:01;;;;;;;0.00;0.00;;;24.30;99.90;;;;;;5087118;28;20051;-81
2022/08/04 13:21:29;;;;;;;0.00;0.00;;;24.50;99.90;;;;;;5087144;28;20489;-81
2022/08/04 13:24:00;;;;;;;0.08;0.08;;;24.70;99.90;;;;;;5069567;28;20466;-81
2022/08/04 13:26:27;;;;;;;0.10;0.00;;;24.80;99.90;;;;;;5086770;28;20134;-81
2022/08/04 13:28:56;;;;;;;0.00;0.00;;;25.00;99.90;;;;;;5087113;28;20053;-82
2022/08/04 13:31:25;;;;;;;0.00;0.00;;;25.10;99.90;;;;;;5070242;28;20060;-82
2022/08/04 13:33:54;;;;;;;0.00;0.00;;;25.40;99.90;;;;;;5087085;28;20060;-81
2022/08/04 13:36:24;;;;;;;0.10;0.00;;;25.70;99.90;;;;;;5071076;28;20057;-81